createdAt,value
2022-12-24T00:00:19.838Z,36.47
2022-12-24T00:03:05.509Z,35.55
2022-12-24T00:05:50.823Z,55.58
2022-12-24T00:08:36.402Z,39.08
2022-12-24T00:11:21.893Z,54.45
2022-12-24T00:14:07.365Z,48.17
2022-12-24T00:16:52.968Z,57.65
2022-12-24T00:19:38.475Z,55.78
2022-12-24T00:22:24.006Z,60.42
2022-12-24T00:25:09.603Z,54.58
2022-12-24T00:27:55.161Z,52.55
2022-12-24T00:30:41.394Z,51.08
2022-12-24T00:33:26.577Z,48.72
2022-12-24T00:36:12.163Z,46.58
2022-12-24T00:38:57.792Z,53.08
2022-12-24T00:41:43.433Z,41.97
2022-12-24T00:44:28.736Z,41.90
2022-12-24T00:47:14.079Z,34.85
2022-12-24T00:49:59.707Z,32.67
2022-12-24T00:52:45.114Z,33.92
2022-12-24T00:55:30.608Z,35.70
2022-12-24T00:58:16.358Z,36.72
2022-12-24T01:01:02.178Z,44.38
2022-12-24T01:03:48.614Z,33.58
2022-12-24T01:06:33.885Z,35.08
2022-12-24T01:09:19.323Z,43.25
2022-12-24T01:12:05.296Z,45.30
2022-12-24T01:14:50.321Z,48.10
2022-12-24T01:17:36.402Z,54.55
2022-12-24T01:20:22.080Z,64.28
2022-12-24T01:23:07.322Z,64.53
2022-12-24T01:25:52.954Z,66.68
2022-12-24T01:28:38.689Z,51.80
2022-12-24T01:31:23.968Z,52.10
2022-12-24T01:34:09.597Z,44.72
2022-12-24T01:36:55.376Z,50.35
2022-12-24T01:39:40.962Z,53.33
2022-12-24T01:42:45.102Z,50.83
2022-12-24T01:45:48.705Z,51.40
2022-12-24T01:48:46.504Z,45.90
2022-12-24T01:51:39.012Z,49.65
2022-12-24T01:54:34.721Z,48.67
2022-12-24T01:57:37.212Z,43.15
2022-12-24T02:00:22.730Z,47.10
2022-12-24T02:03:08.534Z,47.85
2022-12-24T02:05:56.015Z,43.83
2022-12-24T02:08:41.603Z,47.33
2022-12-24T02:11:27.208Z,41.00
2022-12-24T02:14:13.525Z,41.30
2022-12-24T02:17:29.148Z,40.97
2022-12-24T02:20:47.803Z,35.33
2022-12-24T02:23:54.782Z,37.13
2022-12-24T02:27:01.737Z,34.53
2022-12-24T02:30:07.524Z,35.60
2022-12-24T02:33:18.506Z,34.97
2022-12-24T02:36:08.244Z,31.52
2022-12-24T02:39:00.913Z,31.48
2022-12-24T02:42:05.865Z,32.42
2022-12-24T02:44:59.234Z,26.88
2022-12-24T02:47:45.839Z,28.73
2022-12-24T02:50:31.508Z,28.08
2022-12-24T02:53:17.003Z,26.40
2022-12-24T02:56:14.663Z,26.20
2022-12-24T02:59:11.846Z,25.27
2022-12-24T03:02:25.080Z,25.27
2022-12-24T03:05:24.315Z,21.85
2022-12-24T03:08:33.811Z,22.40
2022-12-24T03:11:19.207Z,21.10
2022-12-24T03:14:04.736Z,21.77
2022-12-24T03:16:50.566Z,17.90
2022-12-24T03:19:36.272Z,19.90
2022-12-24T03:22:22.721Z,21.08
2022-12-24T03:25:08.695Z,17.55
2022-12-24T03:27:56.575Z,18.98
2022-12-24T03:30:43.909Z,17.60
2022-12-24T03:33:29.674Z,15.68
2022-12-24T03:36:14.971Z,14.52
2022-12-24T03:39:00.596Z,16.30
2022-12-24T03:41:46.282Z,16.75
2022-12-24T03:44:31.679Z,16.38
2022-12-24T03:47:17.155Z,13.48
2022-12-24T03:50:02.594Z,17.02
2022-12-24T03:52:48.307Z,15.00
2022-12-24T03:55:33.671Z,12.40
2022-12-24T03:58:19.088Z,14.80
2022-12-24T04:01:04.850Z,14.32
2022-12-24T04:03:50.140Z,13.73
2022-12-24T04:06:35.600Z,12.30
2022-12-24T04:09:20.979Z,15.05
2022-12-24T04:12:07.077Z,16.05
2022-12-24T04:14:52.437Z,15.80
2022-12-24T04:17:38.075Z,12.70
2022-12-24T04:20:23.628Z,11.50
2022-12-24T04:23:09.014Z,15.27
2022-12-24T04:25:54.479Z,12.18
2022-12-24T04:28:41.734Z,15.57
2022-12-24T04:31:27.152Z,14.50
2022-12-24T04:34:12.544Z,11.57
2022-12-24T04:36:58.226Z,12.73
2022-12-24T04:39:43.509Z,14.98
2022-12-24T04:42:28.984Z,12.05
2022-12-24T04:45:14.433Z,12.07
2022-12-24T04:48:00.088Z,10.95
2022-12-24T04:50:45.493Z,13.00
2022-12-24T04:53:31.546Z,11.30
2022-12-24T04:56:26.020Z,12.75
2022-12-24T04:59:11.512Z,11.82
2022-12-24T05:01:57.193Z,12.82
2022-12-24T05:04:42.661Z,14.35
2022-12-24T05:07:28.142Z,16.55
2022-12-24T05:10:13.691Z,13.05
2022-12-24T05:12:59.508Z,14.40
2022-12-24T05:15:45.221Z,13.93
2022-12-24T05:18:30.762Z,18.90
2022-12-24T05:21:19.128Z,13.10
2022-12-24T05:24:22.957Z,14.60
2022-12-24T05:27:08.221Z,15.20
2022-12-24T05:29:53.758Z,17.45
2022-12-24T05:32:39.233Z,14.05
2022-12-24T05:35:24.788Z,13.13
2022-12-24T05:38:10.362Z,16.33
2022-12-24T05:40:55.912Z,15.98
2022-12-24T05:43:41.287Z,16.50
2022-12-24T05:46:26.743Z,17.33
2022-12-24T05:49:13.776Z,18.70
2022-12-24T05:51:59.220Z,17.88
2022-12-24T05:54:44.823Z,20.17
2022-12-24T05:57:30.511Z,19.90
2022-12-24T06:00:15.984Z,25.88
2022-12-24T06:03:01.467Z,27.15
2022-12-24T06:05:46.942Z,31.05
2022-12-24T06:08:33.545Z,30.13
2022-12-24T06:11:21.678Z,20.42
2022-12-24T06:14:07.131Z,19.52
2022-12-24T06:16:52.796Z,22.95
2022-12-24T06:19:38.279Z,36.53
2022-12-24T06:22:23.553Z,76.13
2022-12-24T06:25:09.440Z,95.28
2022-12-24T06:27:55.030Z,154.30
2022-12-24T06:30:40.825Z,60.97
2022-12-24T06:33:26.288Z,29.67
2022-12-24T06:36:18.335Z,36.45
2022-12-24T06:39:04.024Z,27.15
2022-12-24T06:41:49.534Z,26.67
2022-12-24T06:44:35.095Z,33.63
2022-12-24T06:47:20.491Z,38.70
2022-12-24T06:50:07.434Z,43.70
2022-12-24T06:52:53.148Z,31.60
2022-12-24T06:55:38.773Z,54.40
2022-12-24T06:58:24.193Z,82.78
2022-12-24T07:01:13.088Z,100.43
2022-12-24T07:03:58.826Z,45.22
2022-12-24T07:06:44.328Z,26.95
2022-12-24T07:09:29.767Z,25.38
2022-12-24T07:12:15.341Z,24.23
2022-12-24T07:15:00.890Z,23.73
2022-12-24T07:17:46.629Z,22.58
2022-12-24T07:20:31.984Z,29.00
2022-12-24T07:23:17.657Z,23.55
2022-12-24T07:26:05.024Z,21.48
2022-12-24T07:28:50.768Z,22.95
2022-12-24T07:31:36.135Z,23.95
2022-12-24T07:34:21.575Z,30.40
2022-12-24T07:37:07.667Z,27.55
2022-12-24T07:39:53.062Z,27.63
2022-12-24T07:42:38.536Z,36.85
2022-12-24T07:45:24.080Z,41.20
2022-12-24T07:48:09.701Z,39.45
2022-12-24T07:50:56.092Z,45.67
2022-12-24T07:53:47.734Z,43.03
2022-12-24T07:56:33.322Z,57.20
2022-12-24T07:59:18.855Z,53.60
2022-12-24T08:02:04.430Z,35.10
2022-12-24T08:04:49.841Z,27.33
2022-12-24T08:07:35.258Z,33.47
2022-12-24T08:10:20.750Z,24.17
2022-12-24T08:13:06.305Z,21.73
2022-12-24T08:15:51.947Z,22.90
2022-12-24T08:18:37.369Z,21.95
2022-12-24T08:21:22.849Z,23.13
2022-12-24T08:24:08.496Z,22.55
2022-12-24T08:26:53.836Z,20.20
2022-12-24T08:29:39.320Z,25.42
2022-12-24T08:32:24.858Z,20.73
2022-12-24T08:35:10.279Z,25.90
2022-12-24T08:37:55.944Z,25.95
2022-12-24T08:40:41.151Z,26.77
2022-12-24T08:43:27.008Z,26.33
2022-12-24T08:46:12.844Z,28.52
2022-12-24T08:48:58.386Z,22.15
2022-12-24T08:51:44.008Z,33.35
2022-12-24T08:54:29.305Z,21.92
2022-12-24T08:57:14.823Z,26.88
2022-12-24T09:00:00.405Z,28.38
2022-12-24T09:02:45.915Z,27.60
2022-12-24T09:05:31.697Z,30.45
2022-12-24T09:08:16.869Z,28.83
2022-12-24T09:11:06.748Z,30.20
2022-12-24T09:13:52.329Z,31.60
2022-12-24T09:16:37.934Z,31.85
2022-12-24T09:19:23.789Z,24.42
2022-12-24T09:22:09.093Z,30.50
2022-12-24T09:24:54.691Z,29.20
2022-12-24T09:27:40.404Z,29.13
2022-12-24T09:30:25.842Z,27.50
2022-12-24T09:33:11.349Z,33.33
2022-12-24T09:35:58.246Z,27.60
2022-12-24T09:38:43.626Z,29.65
2022-12-24T09:41:40.395Z,40.97
2022-12-24T09:44:45.547Z,45.78
2022-12-24T09:47:40.994Z,36.20
2022-12-24T09:50:41.221Z,43.45
2022-12-24T09:53:33.268Z,33.85
2022-12-24T09:56:26.265Z,29.48
2022-12-24T09:59:15.802Z,36.38
2022-12-24T10:02:01.692Z,41.13
2022-12-24T10:04:48.868Z,31.45
2022-12-24T10:07:55.111Z,37.25
2022-12-24T10:10:54.067Z,35.80
2022-12-24T10:13:48.318Z,37.25
2022-12-24T10:16:56.347Z,27.48
2022-12-24T10:19:45.354Z,33.55
2022-12-24T10:22:48.403Z,35.63
2022-12-24T10:25:55.357Z,30.40
2022-12-24T10:28:52.262Z,36.83
2022-12-24T10:31:53.177Z,30.85
2022-12-24T10:35:02.308Z,39.90
2022-12-24T10:37:49.524Z,35.58
2022-12-24T10:40:42.761Z,34.28
2022-12-24T10:43:29.908Z,34.90
2022-12-24T10:46:19.870Z,31.23
2022-12-24T10:49:11.414Z,31.08
2022-12-24T10:52:03.577Z,36.25
2022-12-24T10:55:12.451Z,35.55
2022-12-24T10:58:13.693Z,31.58
2022-12-24T11:00:59.272Z,32.75
2022-12-24T11:03:44.917Z,37.58
2022-12-24T11:06:30.318Z,44.15
2022-12-24T11:09:26.419Z,38.72
2022-12-24T11:12:22.923Z,37.17
2022-12-24T11:15:20.529Z,32.63
2022-12-24T11:18:13.677Z,27.13
2022-12-24T11:21:00.936Z,30.08
2022-12-24T11:23:57.839Z,25.45
2022-12-24T11:26:44.641Z,28.77
2022-12-24T11:29:30.208Z,28.80
2022-12-24T11:32:21.147Z,30.85
2022-12-24T11:35:16.718Z,31.02
2022-12-24T11:38:05.171Z,28.58
2022-12-24T11:41:05.251Z,28.08
2022-12-24T11:43:58.382Z,28.90
2022-12-24T11:46:52.361Z,26.58
2022-12-24T11:49:38.025Z,30.15
2022-12-24T11:52:24.733Z,25.80
2022-12-24T11:55:15.711Z,30.40
2022-12-24T11:58:11.394Z,33.13
2022-12-24T12:01:18.616Z,29.30
2022-12-24T12:04:25.736Z,31.30
2022-12-24T12:07:15.008Z,32.13
2022-12-24T12:10:08.286Z,35.95
2022-12-24T12:13:08.619Z,33.38
2022-12-24T12:16:29.367Z,38.90
2022-12-24T12:19:15.648Z,40.20
2022-12-24T12:22:05.394Z,32.20
2022-12-24T12:24:52.926Z,30.20
2022-12-24T12:27:43.563Z,29.70
2022-12-24T12:30:29.731Z,35.40
2022-12-24T12:33:25.923Z,38.70
2022-12-24T12:36:13.242Z,31.05
2022-12-24T12:38:58.951Z,34.17
2022-12-24T12:42:07.680Z,36.80
2022-12-24T12:45:16.499Z,28.60
2022-12-24T12:48:26.553Z,27.17
2022-12-24T12:51:52.153Z,24.55
2022-12-24T12:54:55.983Z,31.80
2022-12-24T12:57:41.394Z,32.42
2022-12-24T13:00:28.368Z,30.98
2022-12-24T13:03:22.967Z,33.42
2022-12-24T13:06:27.190Z,35.75
2022-12-24T13:09:37.602Z,35.75
2022-12-24T13:12:50.566Z,31.27
2022-12-24T13:16:04.595Z,39.38
2022-12-24T13:19:13.344Z,36.75
2022-12-24T13:21:58.665Z,35.10
2022-12-24T13:24:56.665Z,32.45
2022-12-24T13:27:42.079Z,42.55
2022-12-24T13:30:39.295Z,38.65
2022-12-24T13:33:37.090Z,37.20
2022-12-24T13:36:23.087Z,39.15
2022-12-24T13:39:21.077Z,38.13
2022-12-24T13:42:06.868Z,45.28
2022-12-24T13:45:30.729Z,45.47
2022-12-24T13:48:16.285Z,38.10
2022-12-24T13:51:18.574Z,42.17
2022-12-24T13:54:04.408Z,38.28
2022-12-24T13:56:50.034Z,40.08
2022-12-24T13:59:39.034Z,34.20
2022-12-24T14:02:24.880Z,37.92
2022-12-24T14:05:21.671Z,32.42
2022-12-24T14:08:36.796Z,34.10
2022-12-24T14:11:25.392Z,33.05
2022-12-24T14:14:19.817Z,30.48
2022-12-24T14:17:26.665Z,29.23
2022-12-24T14:20:14.090Z,35.40
2022-12-24T14:22:59.991Z,43.38
2022-12-24T14:25:45.462Z,43.15
2022-12-24T14:28:36.131Z,47.97
2022-12-24T14:31:21.733Z,49.78
2022-12-24T14:34:13.710Z,49.17
2022-12-24T14:37:01.433Z,49.20
2022-12-24T14:39:48.589Z,42.92
2022-12-24T14:42:35.459Z,37.13
2022-12-24T14:45:32.393Z,45.13
2022-12-24T14:48:43.606Z,44.15
2022-12-24T14:51:42.591Z,37.70
2022-12-24T14:54:32.480Z,51.17
2022-12-24T14:57:23.867Z,54.03
2022-12-24T15:00:20.032Z,52.03
2022-12-24T15:03:16.364Z,58.95
2022-12-24T15:06:08.745Z,56.28
2022-12-24T15:08:54.170Z,64.60
2022-12-24T15:11:39.766Z,70.97
2022-12-24T15:14:26.716Z,71.55
2022-12-24T15:17:12.623Z,71.15
2022-12-24T15:19:59.255Z,73.00
2022-12-24T15:22:45.790Z,72.45
2022-12-24T15:25:32.847Z,73.63
2022-12-24T15:28:20.302Z,75.82
2022-12-24T15:31:10.997Z,80.00
2022-12-24T15:33:57.538Z,95.88
2022-12-24T15:36:42.771Z,97.00
2022-12-24T15:39:28.352Z,78.72
2022-12-24T15:42:18.699Z,79.55
2022-12-24T15:45:26.724Z,82.35
2022-12-24T15:48:17.181Z,89.47
2022-12-24T15:51:03.487Z,95.32
2022-12-24T15:53:49.511Z,105.28
2022-12-24T15:56:40.402Z,93.38
2022-12-24T15:59:38.315Z,72.97
2022-12-24T16:02:34.091Z,58.03
2022-12-24T16:05:34.502Z,57.53
2022-12-24T16:08:25.425Z,58.40
2022-12-24T16:11:23.709Z,52.67
2022-12-24T16:14:20.227Z,54.10
2022-12-24T16:17:19.647Z,54.33
2022-12-24T16:20:07.915Z,59.55
2022-12-24T16:22:52.982Z,62.50
2022-12-24T16:25:38.565Z,79.47
2022-12-24T16:28:24.201Z,75.85
2022-12-24T16:31:17.990Z,80.97
2022-12-24T16:34:04.240Z,84.82
2022-12-24T16:36:49.872Z,84.38
2022-12-24T16:39:35.796Z,84.70
2022-12-24T16:42:40.005Z,76.65
2022-12-24T16:45:25.530Z,76.03
2022-12-24T16:48:17.716Z,68.40
2022-12-24T16:51:03.750Z,69.18
2022-12-24T16:53:48.900Z,58.42
2022-12-24T16:56:34.160Z,58.33
2022-12-24T16:59:22.259Z,58.97
2022-12-24T17:02:14.535Z,66.20
2022-12-24T17:07:45.749Z,76.32
2022-12-24T17:10:30.945Z,74.45
2022-12-24T17:13:16.681Z,77.82
2022-12-24T17:16:03.162Z,78.50
2022-12-24T17:18:50.559Z,77.85
2022-12-24T17:21:36.163Z,75.57
2022-12-24T17:24:21.484Z,75.80
2022-12-24T17:27:07.039Z,68.60
2022-12-24T17:29:52.712Z,70.47
2022-12-24T17:32:39.573Z,70.07
2022-12-24T17:35:25.062Z,70.38
2022-12-24T17:38:10.587Z,67.90
2022-12-24T17:41:02.731Z,71.18
2022-12-24T17:43:48.902Z,62.33
2022-12-24T17:46:34.542Z,60.72
2022-12-24T17:49:20.270Z,66.45
2022-12-24T17:52:05.925Z,62.90
2022-12-24T17:54:51.613Z,62.55
2022-12-24T17:57:37.039Z,65.85
2022-12-24T18:00:24.796Z,67.50
2022-12-24T18:03:14.073Z,64.35
2022-12-24T18:06:08.213Z,67.93
2022-12-24T18:08:54.282Z,63.30
2022-12-24T18:11:39.709Z,64.45
2022-12-24T18:14:25.250Z,72.57
2022-12-24T18:17:10.750Z,71.07
2022-12-24T18:19:56.132Z,75.05
2022-12-24T18:22:41.782Z,71.82
2022-12-24T18:25:27.321Z,71.07
2022-12-24T18:28:12.758Z,68.25
2022-12-24T18:31:03.147Z,68.50
2022-12-24T18:33:50.075Z,76.63
2022-12-24T18:36:36.389Z,68.22
2022-12-24T18:39:22.183Z,66.60
2022-12-24T18:42:07.522Z,64.70
2022-12-24T18:44:53.123Z,68.43
2022-12-24T18:47:38.558Z,67.50
2022-12-24T18:50:25.417Z,68.30
2022-12-24T18:53:11.378Z,62.80
2022-12-24T18:56:10.587Z,67.25
2022-12-24T18:58:58.477Z,74.47
2022-12-24T19:01:44.407Z,77.25
2022-12-24T19:04:30.152Z,76.70
2022-12-24T19:07:15.800Z,89.88
2022-12-24T19:10:01.227Z,102.28
2022-12-24T19:12:46.660Z,97.05
2022-12-24T19:15:35.840Z,87.95
2022-12-24T19:18:21.588Z,81.55
2022-12-24T19:21:08.566Z,75.45
2022-12-24T19:23:54.131Z,67.90
2022-12-24T19:26:39.860Z,74.35
2022-12-24T19:29:25.113Z,80.07
2022-12-24T19:32:10.745Z,77.47
2022-12-24T19:34:56.312Z,80.60
2022-12-24T19:37:41.937Z,82.45
2022-12-24T19:40:27.882Z,77.72
2022-12-24T19:43:13.157Z,81.22
2022-12-24T19:45:58.660Z,75.10
2022-12-24T19:48:48.132Z,65.47
2022-12-24T19:51:34.608Z,67.90
2022-12-24T19:54:20.514Z,66.90
2022-12-24T19:57:05.717Z,61.08
2022-12-24T19:59:51.173Z,58.03
2022-12-24T20:02:37.216Z,64.63
2022-12-24T20:05:22.746Z,59.22
2022-12-24T20:08:08.364Z,61.20
2022-12-24T20:10:53.691Z,53.85
2022-12-24T20:13:40.295Z,61.22
2022-12-24T20:16:27.185Z,57.00
2022-12-24T20:19:14.958Z,63.33
2022-12-24T20:22:00.275Z,57.53
2022-12-24T20:24:45.754Z,67.30
2022-12-24T20:27:31.185Z,68.88
2022-12-24T20:30:16.924Z,69.18
2022-12-24T20:33:02.165Z,61.40
2022-12-24T20:35:48.190Z,63.13
2022-12-24T20:38:33.551Z,58.53
2022-12-24T20:41:21.508Z,67.47
2022-12-24T20:44:07.308Z,86.50
2022-12-24T20:46:52.766Z,72.40
2022-12-24T20:49:38.350Z,77.05
2022-12-24T20:52:24.251Z,83.55
2022-12-24T20:55:09.900Z,78.25
2022-12-24T20:57:55.422Z,75.45
2022-12-24T21:00:40.988Z,72.32
2022-12-24T21:03:26.351Z,72.72
2022-12-24T21:06:12.666Z,85.63
2022-12-24T21:08:58.388Z,106.43
2022-12-24T21:11:49.646Z,117.68
2022-12-24T21:14:35.300Z,120.70
2022-12-24T21:17:20.746Z,102.18
2022-12-24T21:20:06.778Z,101.88
2022-12-24T21:22:55.986Z,85.13
2022-12-24T21:25:45.747Z,84.13
2022-12-24T21:28:31.968Z,78.22
2022-12-24T21:31:17.903Z,67.78
2022-12-24T21:34:03.559Z,70.88
2022-12-24T21:36:48.872Z,68.07
2022-12-24T21:39:34.501Z,75.45
2022-12-24T21:42:20.193Z,80.65
2022-12-24T21:45:06.699Z,81.78
2022-12-24T21:47:52.017Z,76.28
2022-12-24T21:50:55.469Z,71.82
2022-12-24T21:53:59.375Z,76.72
2022-12-24T21:57:04.324Z,70.57
2022-12-24T21:59:51.750Z,64.25
2022-12-24T22:02:38.060Z,67.18
2022-12-24T22:05:26.072Z,67.30
2022-12-24T22:08:30.191Z,63.17
2022-12-24T22:11:34.770Z,68.28
2022-12-24T22:14:20.362Z,66.68
2022-12-24T22:17:06.755Z,71.93
2022-12-24T22:19:53.115Z,71.30
2022-12-24T22:22:38.928Z,71.15
2022-12-24T22:25:24.246Z,65.55
2022-12-24T22:28:09.970Z,65.63
2022-12-24T22:30:56.174Z,66.65
2022-12-24T22:33:41.500Z,61.83
2022-12-24T22:36:31.126Z,68.85
2022-12-24T22:39:16.762Z,70.43
2022-12-24T22:42:02.466Z,60.83
2022-12-24T22:44:48.697Z,64.22
2022-12-24T22:47:34.411Z,71.35
2022-12-24T22:50:19.540Z,67.70
2022-12-24T22:53:05.057Z,76.18
2022-12-24T22:55:57.774Z,75.80
2022-12-24T22:58:43.832Z,63.10
2022-12-24T23:01:37.627Z,73.22
2022-12-24T23:04:23.086Z,72.13
2022-12-24T23:07:10.121Z,77.18
2022-12-24T23:09:57.022Z,77.35
2022-12-24T23:13:01.290Z,81.28
2022-12-24T23:15:47.142Z,81.40
2022-12-24T23:18:33.716Z,81.75
2022-12-24T23:21:19.412Z,75.57
2022-12-24T23:24:05.625Z,74.25
2022-12-24T23:26:51.181Z,71.47
2022-12-24T23:29:36.788Z,70.82
2022-12-24T23:32:23.378Z,70.75
2022-12-24T23:35:08.979Z,75.45
2022-12-24T23:37:54.625Z,80.50
2022-12-24T23:40:41.929Z,72.68
2022-12-24T23:43:27.824Z,70.25
2022-12-24T23:46:18.295Z,60.80
2022-12-24T23:49:04.140Z,66.50
2022-12-24T23:51:49.291Z,59.72
2022-12-24T23:54:34.859Z,60.90
2022-12-24T23:57:20.564Z,59.78
